<?xml version="1.0" encoding="UTF-8" standalone="no" ?>
<gpx xmlns="http://www.topografix.com/GPX/1/1" xmlns:xsi="http://www.w3.org/2001/XMLSchema-instance" xsi:schemaLocation="http://www.topografix.com/GPX/1/1 http://www.topografix.com/GPX/1/1/gpx.xsd" version="1.1" creator="VisuGPX - https://www.visugpx.com">
  <metadata>
    <name>Tour de France 2019</name>
    <desc><![CDATA[4272km en 2 mois en tandem avec notre petit chien dans le panier avant]]></desc>
  </metadata>
  <trk>
    <name><![CDATA[Tracé 20191014-093134]]></name>
    <trkseg>
      <trkpt lat="42.74909" lon="9.46359">
        <ele>6.325</ele>
        <time>2019-10-14T07:31:49Z</time>
      </trkpt>
      <trkpt lat="42.74996" lon="9.46392">
        <ele>14.878</ele>
        <time>2019-10-14T07:32:19Z</time>
      </trkpt>
      <trkpt lat="42.75078" lon="9.46508">
        <ele>14.46</ele>
        <time>2019-10-14T07:32:49Z</time>
      </trkpt>
      <trkpt lat="42.75166" lon="9.46622">
        <ele>15.881</ele>
        <time>2019-10-14T07:33:19Z</time>
      </trkpt>
      <trkpt lat="42.7525" lon="9.46723">
        <ele>19.15</ele>
        <time>2019-10-14T07:33:49Z</time>
      </trkpt>
      <trkpt lat="42.75338" lon="9.46771">
        <ele>18.351</ele>
        <time>2019-10-14T07:34:19Z</time>
      </trkpt>
      <trkpt lat="42.75485" lon="9.46725">
        <ele>17.747</ele>
        <time>2019-10-14T07:34:52Z</time>
      </trkpt>
      <trkpt lat="42.75651" lon="9.46574">
        <ele>9.467</ele>
        <time>2019-10-14T07:35:22Z</time>
      </trkpt>
      <trkpt lat="42.75812" lon="9.4654">
        <ele>5.079</ele>
        <time>2019-10-14T07:35:52Z</time>
      </trkpt>
      <trkpt lat="42.75932" lon="9.46635">
        <ele>5.257</ele>
        <time>2019-10-14T07:36:22Z</time>
      </trkpt>
      <trkpt lat="42.76055" lon="9.46638">
        <ele>10.863</ele>
        <time>2019-10-14T07:36:52Z</time>
      </trkpt>
      <trkpt lat="42.76164" lon="9.46693">
        <ele>17.08</ele>
        <time>2019-10-14T07:37:22Z</time>
      </trkpt>
      <trkpt lat="42.76252" lon="9.46711">
        <ele>21.83</ele>
        <time>2019-10-14T07:37:52Z</time>
      </trkpt>
      <trkpt lat="42.76363" lon="9.46765">
        <ele>22.103</ele>
        <time>2019-10-14T07:38:22Z</time>
      </trkpt>
      <trkpt lat="42.76459" lon="9.46778">
        <ele>26.437</ele>
        <time>2019-10-14T07:38:52Z</time>
      </trkpt>
      <trkpt lat="42.76529" lon="9.46861">
        <ele>33.436</ele>
        <time>2019-10-14T07:39:22Z</time>
      </trkpt>
      <trkpt lat="42.76608" lon="9.46875">
        <ele>32.086</ele>
        <time>2019-10-14T07:39:52Z</time>
      </trkpt>
      <trkpt lat="42.76649" lon="9.46869">
        <ele>34.692</ele>
        <time>2019-10-14T07:41:16Z</time>
      </trkpt>
      <trkpt lat="42.76783" lon="9.46933">
        <ele>31.078</ele>
        <time>2019-10-14T07:41:46Z</time>
      </trkpt>
      <trkpt lat="42.76901" lon="9.47075">
        <ele>27.826</ele>
        <time>2019-10-14T07:42:16Z</time>
      </trkpt>
      <trkpt lat="42.77077" lon="9.47158">
        <ele>22.918</ele>
        <time>2019-10-14T07:42:46Z</time>
      </trkpt>
      <trkpt lat="42.77185" lon="9.47273">
        <ele>20.567</ele>
        <time>2019-10-14T07:43:16Z</time>
      </trkpt>
      <trkpt lat="42.77366" lon="9.47444">
        <ele>16.216</ele>
        <time>2019-10-14T07:43:46Z</time>
      </trkpt>
      <trkpt lat="42.77472" lon="9.47545">
        <ele>20.752</ele>
        <time>2019-10-14T07:44:16Z</time>
      </trkpt>
      <trkpt lat="42.77578" lon="9.47635">
        <ele>18.309</ele>
        <time>2019-10-14T07:44:46Z</time>
      </trkpt>
      <trkpt lat="42.77685" lon="9.47777">
        <ele>3.935</ele>
        <time>2019-10-14T07:45:16Z</time>
      </trkpt>
      <trkpt lat="42.77804" lon="9.47842">
        <ele>8.768</ele>
        <time>2019-10-14T07:45:46Z</time>
      </trkpt>
      <trkpt lat="42.77912" lon="9.4788">
        <ele>11.555</ele>
        <time>2019-10-14T07:46:16Z</time>
      </trkpt>
      <trkpt lat="42.78" lon="9.47799">
        <ele>17.569</ele>
        <time>2019-10-14T07:46:49Z</time>
      </trkpt>
      <trkpt lat="42.78063" lon="9.47874">
        <ele>22.114</ele>
        <time>2019-10-14T07:47:19Z</time>
      </trkpt>
      <trkpt lat="42.78113" lon="9.47973">
        <ele>23.872</ele>
        <time>2019-10-14T07:47:49Z</time>
      </trkpt>
      <trkpt lat="42.78117" lon="9.48106">
        <ele>29.8</ele>
        <time>2019-10-14T07:48:19Z</time>
      </trkpt>
      <trkpt lat="42.78206" lon="9.48157">
        <ele>31.569</ele>
        <time>2019-10-14T07:48:49Z</time>
      </trkpt>
      <trkpt lat="42.78278" lon="9.48245">
        <ele>35.176</ele>
        <time>2019-10-14T07:49:19Z</time>
      </trkpt>
      <trkpt lat="42.78365" lon="9.48235">
        <ele>37.199</ele>
        <time>2019-10-14T07:49:49Z</time>
      </trkpt>
      <trkpt lat="42.78455" lon="9.48263">
        <ele>41.211</ele>
        <time>2019-10-14T07:50:19Z</time>
      </trkpt>
      <trkpt lat="42.78524" lon="9.48317">
        <ele>42.859</ele>
        <time>2019-10-14T07:50:49Z</time>
      </trkpt>
      <trkpt lat="42.78603" lon="9.48362">
        <ele>48.72</ele>
        <time>2019-10-14T07:51:19Z</time>
      </trkpt>
      <trkpt lat="42.78695" lon="9.48344">
        <ele>46.018</ele>
        <time>2019-10-14T07:51:49Z</time>
      </trkpt>
      <trkpt lat="42.78843" lon="9.48378">
        <ele>44.27</ele>
        <time>2019-10-14T07:52:22Z</time>
      </trkpt>
      <trkpt lat="42.78837" lon="9.48578">
        <ele>43.63</ele>
        <time>2019-10-14T07:52:52Z</time>
      </trkpt>
      <trkpt lat="42.7908" lon="9.48687">
        <ele>34.471</ele>
        <time>2019-10-14T07:53:22Z</time>
      </trkpt>
      <trkpt lat="42.79259" lon="9.48805">
        <ele>34.017</ele>
        <time>2019-10-14T07:53:52Z</time>
      </trkpt>
      <trkpt lat="42.7937" lon="9.48874">
        <ele>34.297</ele>
        <time>2019-10-14T07:54:22Z</time>
      </trkpt>
      <trkpt lat="42.79504" lon="9.48888">
        <ele>36.822</ele>
        <time>2019-10-14T07:54:52Z</time>
      </trkpt>
      <trkpt lat="42.79602" lon="9.48974">
        <ele>40.338</ele>
        <time>2019-10-14T07:55:22Z</time>
      </trkpt>
      <trkpt lat="42.79694" lon="9.49037">
        <ele>45.162</ele>
        <time>2019-10-14T07:55:52Z</time>
      </trkpt>
      <trkpt lat="42.79773" lon="9.49063">
        <ele>53.244</ele>
        <time>2019-10-14T07:56:22Z</time>
      </trkpt>
      <trkpt lat="42.79856" lon="9.49067">
        <ele>52.609</ele>
        <time>2019-10-14T07:56:52Z</time>
      </trkpt>
      <trkpt lat="42.7997" lon="9.49065">
        <ele>50.662</ele>
        <time>2019-10-14T07:57:22Z</time>
      </trkpt>
      <trkpt lat="42.8024" lon="9.4912">
        <ele>39.538</ele>
        <time>2019-10-14T07:57:55Z</time>
      </trkpt>
      <trkpt lat="42.80546" lon="9.49117">
        <ele>25.362</ele>
        <time>2019-10-14T07:58:25Z</time>
      </trkpt>
      <trkpt lat="42.80769" lon="9.49166">
        <ele>14.88</ele>
        <time>2019-10-14T07:58:55Z</time>
      </trkpt>
      <trkpt lat="42.80821" lon="9.48871">
        <ele>7.307</ele>
        <time>2019-10-14T07:59:25Z</time>
      </trkpt>
      <trkpt lat="42.80994" lon="9.48898">
        <ele>6.477</ele>
        <time>2019-10-14T07:59:55Z</time>
      </trkpt>
      <trkpt lat="42.81129" lon="9.48933">
        <ele>5.811</ele>
        <time>2019-10-14T08:00:25Z</time>
      </trkpt>
      <trkpt lat="42.81234" lon="9.48982">
        <ele>8.351</ele>
        <time>2019-10-14T08:00:55Z</time>
      </trkpt>
      <trkpt lat="42.81299" lon="9.48948">
        <ele>14.126</ele>
        <time>2019-10-14T08:01:25Z</time>
      </trkpt>
      <trkpt lat="42.81354" lon="9.49003">
        <ele>17.674</ele>
        <time>2019-10-14T08:01:55Z</time>
      </trkpt>
      <trkpt lat="42.81436" lon="9.48988">
        <ele>19.236</ele>
        <time>2019-10-14T08:02:25Z</time>
      </trkpt>
      <trkpt lat="42.81522" lon="9.48904">
        <ele>20.018</ele>
        <time>2019-10-14T08:02:55Z</time>
      </trkpt>
      <trkpt lat="42.81643" lon="9.48858">
        <ele>18.832</ele>
        <time>2019-10-14T08:03:28Z</time>
      </trkpt>
      <trkpt lat="42.81757" lon="9.4883">
        <ele>24.636</ele>
        <time>2019-10-14T08:03:58Z</time>
      </trkpt>
      <trkpt lat="42.81842" lon="9.48733">
        <ele>28.116</ele>
        <time>2019-10-14T08:04:28Z</time>
      </trkpt>
      <trkpt lat="42.8193" lon="9.48674">
        <ele>28.217</ele>
        <time>2019-10-14T08:04:58Z</time>
      </trkpt>
      <trkpt lat="42.82022" lon="9.48634">
        <ele>31.269</ele>
        <time>2019-10-14T08:05:28Z</time>
      </trkpt>
      <trkpt lat="42.82143" lon="9.48634">
        <ele>35.862</ele>
        <time>2019-10-14T08:05:58Z</time>
      </trkpt>
      <trkpt lat="42.82321" lon="9.48656">
        <ele>29.124</ele>
        <time>2019-10-14T08:06:28Z</time>
      </trkpt>
      <trkpt lat="42.82572" lon="9.48613">
        <ele>17.165</ele>
        <time>2019-10-14T08:06:58Z</time>
      </trkpt>
      <trkpt lat="42.82693" lon="9.48673">
        <ele>15.778</ele>
        <time>2019-10-14T08:07:28Z</time>
      </trkpt>
      <trkpt lat="42.82775" lon="9.48596">
        <ele>21.914</ele>
        <time>2019-10-14T08:07:58Z</time>
      </trkpt>
      <trkpt lat="42.82968" lon="9.48585">
        <ele>18.835</ele>
        <time>2019-10-14T08:08:28Z</time>
      </trkpt>
      <trkpt lat="42.83153" lon="9.48456">
        <ele>7.023</ele>
        <time>2019-10-14T08:09:01Z</time>
      </trkpt>
      <trkpt lat="42.83232" lon="9.48552">
        <ele>7.415</ele>
        <time>2019-10-14T08:09:31Z</time>
      </trkpt>
      <trkpt lat="42.83321" lon="9.48539">
        <ele>12.351</ele>
        <time>2019-10-14T08:10:01Z</time>
      </trkpt>
      <trkpt lat="42.83418" lon="9.48497">
        <ele>12.887</ele>
        <time>2019-10-14T08:10:31Z</time>
      </trkpt>
      <trkpt lat="42.83553" lon="9.48332">
        <ele>9.437</ele>
        <time>2019-10-14T08:11:01Z</time>
      </trkpt>
      <trkpt lat="42.83575" lon="9.48087">
        <ele>4.859</ele>
        <time>2019-10-14T08:11:31Z</time>
      </trkpt>
      <trkpt lat="42.83656" lon="9.47919">
        <ele>1</ele>
        <time>2019-10-14T08:12:01Z</time>
      </trkpt>
      <trkpt lat="42.83832" lon="9.47848">
        <ele>1.8</ele>
        <time>2019-10-14T08:12:31Z</time>
      </trkpt>
      <trkpt lat="42.83993" lon="9.4784">
        <ele>1.1</ele>
        <time>2019-10-14T08:13:01Z</time>
      </trkpt>
      <trkpt lat="42.84109" lon="9.47907">
        <ele>2.169</ele>
        <time>2019-10-14T08:13:31Z</time>
      </trkpt>
      <trkpt lat="42.84105" lon="9.48032">
        <ele>7.064</ele>
        <time>2019-10-14T08:14:01Z</time>
      </trkpt>
      <trkpt lat="42.84121" lon="9.4815">
        <ele>11.79</ele>
        <time>2019-10-14T08:14:34Z</time>
      </trkpt>
      <trkpt lat="42.8414" lon="9.48249">
        <ele>13.891</ele>
        <time>2019-10-14T08:15:04Z</time>
      </trkpt>
      <trkpt lat="42.84169" lon="9.48335">
        <ele>17.326</ele>
        <time>2019-10-14T08:15:34Z</time>
      </trkpt>
      <trkpt lat="42.84239" lon="9.48346">
        <ele>19.278</ele>
        <time>2019-10-14T08:16:04Z</time>
      </trkpt>
      <trkpt lat="42.84335" lon="9.48288">
        <ele>19.455</ele>
        <time>2019-10-14T08:16:34Z</time>
      </trkpt>
      <trkpt lat="42.84452" lon="9.48254">
        <ele>20.387</ele>
        <time>2019-10-14T08:17:04Z</time>
      </trkpt>
      <trkpt lat="42.84574" lon="9.48304">
        <ele>21.5</ele>
        <time>2019-10-14T08:17:34Z</time>
      </trkpt>
      <trkpt lat="42.84695" lon="9.48242">
        <ele>22.27</ele>
        <time>2019-10-14T08:18:04Z</time>
      </trkpt>
      <trkpt lat="42.84819" lon="9.48195">
        <ele>23.886</ele>
        <time>2019-10-14T08:18:34Z</time>
      </trkpt>
      <trkpt lat="42.84942" lon="9.48262">
        <ele>25.075</ele>
        <time>2019-10-14T08:19:04Z</time>
      </trkpt>
      <trkpt lat="42.85071" lon="9.48303">
        <ele>24.398</ele>
        <time>2019-10-14T08:19:34Z</time>
      </trkpt>
      <trkpt lat="42.85119" lon="9.4848">
        <ele>25.091</ele>
        <time>2019-10-14T08:20:07Z</time>
      </trkpt>
      <trkpt lat="42.85232" lon="9.48458">
        <ele>23.94</ele>
        <time>2019-10-14T08:20:37Z</time>
      </trkpt>
      <trkpt lat="42.85318" lon="9.48337">
        <ele>26.367</ele>
        <time>2019-10-14T08:21:07Z</time>
      </trkpt>
      <trkpt lat="42.85437" lon="9.48287">
        <ele>26.681</ele>
        <time>2019-10-14T08:21:37Z</time>
      </trkpt>
      <trkpt lat="42.85547" lon="9.48272">
        <ele>28.443</ele>
        <time>2019-10-14T08:22:07Z</time>
      </trkpt>
      <trkpt lat="42.85663" lon="9.48216">
        <ele>30.637</ele>
        <time>2019-10-14T08:22:37Z</time>
      </trkpt>
      <trkpt lat="42.85807" lon="9.48134">
        <ele>27.63</ele>
        <time>2019-10-14T08:23:07Z</time>
      </trkpt>
      <trkpt lat="42.85922" lon="9.48037">
        <ele>18.399</ele>
        <time>2019-10-14T08:23:37Z</time>
      </trkpt>
      <trkpt lat="42.86072" lon="9.48037">
        <ele>15.662</ele>
        <time>2019-10-14T08:24:07Z</time>
      </trkpt>
      <trkpt lat="42.86179" lon="9.48117">
        <ele>14.314</ele>
        <time>2019-10-14T08:24:37Z</time>
      </trkpt>
      <trkpt lat="42.86314" lon="9.48134">
        <ele>14.187</ele>
        <time>2019-10-14T08:25:07Z</time>
      </trkpt>
      <trkpt lat="42.86424" lon="9.48186">
        <ele>16.043</ele>
        <time>2019-10-14T08:25:37Z</time>
      </trkpt>
      <trkpt lat="42.86571" lon="9.48085">
        <ele>16.326</ele>
        <time>2019-10-14T08:26:10Z</time>
      </trkpt>
      <trkpt lat="42.8675" lon="9.48092">
        <ele>17.275</ele>
        <time>2019-10-14T08:26:40Z</time>
      </trkpt>
      <trkpt lat="42.8691" lon="9.47888">
        <ele>14.655</ele>
        <time>2019-10-14T08:27:10Z</time>
      </trkpt>
      <trkpt lat="42.87034" lon="9.47699">
        <ele>12.005</ele>
        <time>2019-10-14T08:27:40Z</time>
      </trkpt>
      <trkpt lat="42.8709" lon="9.47735">
        <ele>13.314</ele>
        <time>2019-10-14T08:28:10Z</time>
      </trkpt>
      <trkpt lat="42.87156" lon="9.47776">
        <ele>19.498</ele>
        <time>2019-10-14T08:28:40Z</time>
      </trkpt>
      <trkpt lat="42.87229" lon="9.4765">
        <ele>15.629</ele>
        <time>2019-10-14T08:29:10Z</time>
      </trkpt>
      <trkpt lat="42.87303" lon="9.47447">
        <ele>12.409</ele>
        <time>2019-10-14T08:29:40Z</time>
      </trkpt>
      <trkpt lat="42.87469" lon="9.47208">
        <ele>3.545</ele>
        <time>2019-10-14T08:30:10Z</time>
      </trkpt>
      <trkpt lat="42.87683" lon="9.47262">
        <ele>1</ele>
        <time>2019-10-14T08:30:40Z</time>
      </trkpt>
      <trkpt lat="42.87823" lon="9.47331">
        <ele>8.4</ele>
        <time>2019-10-14T08:31:10Z</time>
      </trkpt>
      <trkpt lat="42.87811" lon="9.47456">
        <ele>8.644</ele>
        <time>2019-10-14T08:31:43Z</time>
      </trkpt>
      <trkpt lat="42.87806" lon="9.47565">
        <ele>14.423</ele>
        <time>2019-10-14T08:32:13Z</time>
      </trkpt>
      <trkpt lat="42.87859" lon="9.47689">
        <ele>13.539</ele>
        <time>2019-10-14T08:32:43Z</time>
      </trkpt>
      <trkpt lat="42.87989" lon="9.47755">
        <ele>8.243</ele>
        <time>2019-10-14T08:33:13Z</time>
      </trkpt>
      <trkpt lat="42.88183" lon="9.47723">
        <ele>3.708</ele>
        <time>2019-10-14T08:33:43Z</time>
      </trkpt>
      <trkpt lat="42.88374" lon="9.47585">
        <ele>0.615</ele>
        <time>2019-10-14T08:34:13Z</time>
      </trkpt>
      <trkpt lat="42.88517" lon="9.47421">
        <ele>2.982</ele>
        <time>2019-10-14T08:34:43Z</time>
      </trkpt>
      <trkpt lat="42.88677" lon="9.47316">
        <ele>3.307</ele>
        <time>2019-10-14T08:35:13Z</time>
      </trkpt>
      <trkpt lat="42.88852" lon="9.47335">
        <ele>4.625</ele>
        <time>2019-10-14T08:35:43Z</time>
      </trkpt>
      <trkpt lat="42.89011" lon="9.47359">
        <ele>1.117</ele>
        <time>2019-10-14T08:36:13Z</time>
      </trkpt>
      <trkpt lat="42.89143" lon="9.47388">
        <ele>9.2</ele>
        <time>2019-10-14T08:36:43Z</time>
      </trkpt>
      <trkpt lat="42.8929" lon="9.47415">
        <ele>13.6</ele>
        <time>2019-10-14T08:37:16Z</time>
      </trkpt>
      <trkpt lat="42.89431" lon="9.4733">
        <ele>3.34</ele>
        <time>2019-10-14T08:37:46Z</time>
      </trkpt>
      <trkpt lat="42.89552" lon="9.47256">
        <ele>5.108</ele>
        <time>2019-10-14T08:38:16Z</time>
      </trkpt>
      <trkpt lat="42.89679" lon="9.47233">
        <ele>4.313</ele>
        <time>2019-10-14T08:38:46Z</time>
      </trkpt>
      <trkpt lat="42.89819" lon="9.47233">
        <ele>6.69</ele>
        <time>2019-10-14T08:39:16Z</time>
      </trkpt>
      <trkpt lat="42.89954" lon="9.47295">
        <ele>4.91</ele>
        <time>2019-10-14T08:39:46Z</time>
      </trkpt>
      <trkpt lat="42.90083" lon="9.47288">
        <ele>8.306</ele>
        <time>2019-10-14T08:40:16Z</time>
      </trkpt>
      <trkpt lat="42.9022" lon="9.47231">
        <ele>11.745</ele>
        <time>2019-10-14T08:40:46Z</time>
      </trkpt>
      <trkpt lat="42.90332" lon="9.47101">
        <ele>10.09</ele>
        <time>2019-10-14T08:41:16Z</time>
      </trkpt>
      <trkpt lat="42.90482" lon="9.46869">
        <ele>8.05</ele>
        <time>2019-10-14T08:41:46Z</time>
      </trkpt>
      <trkpt lat="42.90635" lon="9.46708">
        <ele>4.42</ele>
        <time>2019-10-14T08:42:16Z</time>
      </trkpt>
      <trkpt lat="42.90752" lon="9.46757">
        <ele>3.548</ele>
        <time>2019-10-14T08:42:49Z</time>
      </trkpt>
      <trkpt lat="42.90828" lon="9.46849">
        <ele>4.898</ele>
        <time>2019-10-14T08:43:19Z</time>
      </trkpt>
      <trkpt lat="42.90888" lon="9.46934">
        <ele>8.566</ele>
        <time>2019-10-14T08:43:49Z</time>
      </trkpt>
      <trkpt lat="42.90943" lon="9.47018">
        <ele>13.269</ele>
        <time>2019-10-14T08:44:19Z</time>
      </trkpt>
      <trkpt lat="42.90975" lon="9.47125">
        <ele>20.237</ele>
        <time>2019-10-14T08:44:49Z</time>
      </trkpt>
      <trkpt lat="42.91066" lon="9.47148">
        <ele>19.386</ele>
        <time>2019-10-14T08:45:19Z</time>
      </trkpt>
      <trkpt lat="42.91173" lon="9.47023">
        <ele>18.863</ele>
        <time>2019-10-14T08:45:49Z</time>
      </trkpt>
      <trkpt lat="42.91342" lon="9.46977">
        <ele>15.358</ele>
        <time>2019-10-14T08:46:19Z</time>
      </trkpt>
      <trkpt lat="42.91547" lon="9.47024">
        <ele>13.736</ele>
        <time>2019-10-14T08:46:49Z</time>
      </trkpt>
      <trkpt lat="42.91749" lon="9.4703">
        <ele>14.09</ele>
        <time>2019-10-14T08:47:19Z</time>
      </trkpt>
      <trkpt lat="42.9194" lon="9.47103">
        <ele>10.354</ele>
        <time>2019-10-14T08:47:49Z</time>
      </trkpt>
      <trkpt lat="42.92123" lon="9.46961">
        <ele>12.079</ele>
        <time>2019-10-14T08:48:22Z</time>
      </trkpt>
      <trkpt lat="42.92272" lon="9.47023">
        <ele>7.153</ele>
        <time>2019-10-14T08:48:52Z</time>
      </trkpt>
      <trkpt lat="42.92361" lon="9.47144">
        <ele>9.162</ele>
        <time>2019-10-14T08:49:22Z</time>
      </trkpt>
      <trkpt lat="42.92484" lon="9.47077">
        <ele>10.229</ele>
        <time>2019-10-14T08:49:52Z</time>
      </trkpt>
      <trkpt lat="42.92542" lon="9.46872">
        <ele>9.939</ele>
        <time>2019-10-14T08:50:22Z</time>
      </trkpt>
      <trkpt lat="42.92611" lon="9.46667">
        <ele>10.163</ele>
        <time>2019-10-14T08:50:52Z</time>
      </trkpt>
      <trkpt lat="42.92714" lon="9.4665">
        <ele>11.664</ele>
        <time>2019-10-14T08:51:22Z</time>
      </trkpt>
      <trkpt lat="42.928" lon="9.46698">
        <ele>13.353</ele>
        <time>2019-10-14T08:51:52Z</time>
      </trkpt>
      <trkpt lat="42.92902" lon="9.46703">
        <ele>11.525</ele>
        <time>2019-10-14T08:52:22Z</time>
      </trkpt>
      <trkpt lat="42.93045" lon="9.46577">
        <ele>13.061</ele>
        <time>2019-10-14T08:52:52Z</time>
      </trkpt>
      <trkpt lat="42.93205" lon="9.46457">
        <ele>5.806</ele>
        <time>2019-10-14T08:53:22Z</time>
      </trkpt>
      <trkpt lat="42.93392" lon="9.46431">
        <ele>6.16</ele>
        <time>2019-10-14T08:53:55Z</time>
      </trkpt>
      <trkpt lat="42.93486" lon="9.46577">
        <ele>6.2</ele>
        <time>2019-10-14T08:54:25Z</time>
      </trkpt>
      <trkpt lat="42.93514" lon="9.46666">
        <ele>6.954</ele>
        <time>2019-10-14T08:54:55Z</time>
      </trkpt>
      <trkpt lat="42.93516" lon="9.46747">
        <ele>18.336</ele>
        <time>2019-10-14T08:55:25Z</time>
      </trkpt>
      <trkpt lat="42.93541" lon="9.46826">
        <ele>25.769</ele>
        <time>2019-10-14T08:55:55Z</time>
      </trkpt>
      <trkpt lat="42.936" lon="9.46871">
        <ele>26.732</ele>
        <time>2019-10-14T08:56:25Z</time>
      </trkpt>
      <trkpt lat="42.93668" lon="9.468">
        <ele>26.117</ele>
        <time>2019-10-14T08:56:55Z</time>
      </trkpt>
      <trkpt lat="42.93772" lon="9.46778">
        <ele>20.711</ele>
        <time>2019-10-14T08:57:25Z</time>
      </trkpt>
      <trkpt lat="42.9387" lon="9.46711">
        <ele>21.479</ele>
        <time>2019-10-14T08:57:55Z</time>
      </trkpt>
      <trkpt lat="42.93953" lon="9.46608">
        <ele>23.192</ele>
        <time>2019-10-14T08:58:25Z</time>
      </trkpt>
      <trkpt lat="42.94075" lon="9.46523">
        <ele>20.648</ele>
        <time>2019-10-14T08:58:56Z</time>
      </trkpt>
      <trkpt lat="42.9428" lon="9.46397">
        <ele>23.246</ele>
        <time>2019-10-14T08:59:29Z</time>
      </trkpt>
      <trkpt lat="42.94404" lon="9.46187">
        <ele>17.014</ele>
        <time>2019-10-14T08:59:59Z</time>
      </trkpt>
      <trkpt lat="42.94502" lon="9.46229">
        <ele>13.194</ele>
        <time>2019-10-14T09:00:29Z</time>
      </trkpt>
      <trkpt lat="42.94553" lon="9.46128">
        <ele>17.806</ele>
        <time>2019-10-14T09:00:59Z</time>
      </trkpt>
      <trkpt lat="42.94635" lon="9.46063">
        <ele>18.327</ele>
        <time>2019-10-14T09:01:29Z</time>
      </trkpt>
      <trkpt lat="42.94729" lon="9.45953">
        <ele>20.217</ele>
        <time>2019-10-14T09:01:59Z</time>
      </trkpt>
      <trkpt lat="42.94838" lon="9.45787">
        <ele>13.755</ele>
        <time>2019-10-14T09:02:29Z</time>
      </trkpt>
      <trkpt lat="42.94944" lon="9.45611">
        <ele>13.826</ele>
        <time>2019-10-14T09:02:59Z</time>
      </trkpt>
      <trkpt lat="42.95112" lon="9.4551">
        <ele>12.535</ele>
        <time>2019-10-14T09:03:29Z</time>
      </trkpt>
      <trkpt lat="42.95212" lon="9.45618">
        <ele>16.853</ele>
        <time>2019-10-14T09:03:59Z</time>
      </trkpt>
      <trkpt lat="42.95319" lon="9.45619">
        <ele>17.331</ele>
        <time>2019-10-14T09:04:29Z</time>
      </trkpt>
      <trkpt lat="42.95575" lon="9.45549">
        <ele>8.797</ele>
        <time>2019-10-14T09:05:02Z</time>
      </trkpt>
      <trkpt lat="42.9576" lon="9.45471">
        <ele>1.279</ele>
        <time>2019-10-14T09:05:32Z</time>
      </trkpt>
      <trkpt lat="42.9587" lon="9.45336">
        <ele>7.98</ele>
        <time>2019-10-14T09:06:02Z</time>
      </trkpt>
      <trkpt lat="42.95893" lon="9.45219">
        <ele>7.813</ele>
        <time>2019-10-14T09:06:32Z</time>
      </trkpt>
      <trkpt lat="42.95902" lon="9.45186">
        <ele>7.48</ele>
        <time>2019-10-14T09:07:02Z</time>
      </trkpt>
      <trkpt lat="42.95902" lon="9.45183">
        <ele>5.213</ele>
        <time>2019-10-14T09:12:20Z</time>
      </trkpt>
      <trkpt lat="42.95904" lon="9.4522">
        <ele>9.746</ele>
        <time>2019-10-14T09:21:41Z</time>
      </trkpt>
      <trkpt lat="42.95903" lon="9.45222">
        <ele>11.073</ele>
        <time>2019-10-14T09:22:59Z</time>
      </trkpt>
      <trkpt lat="42.959" lon="9.452">
        <ele>3.293</ele>
        <time>2019-10-14T09:24:20Z</time>
      </trkpt>
      <trkpt lat="42.95903" lon="9.45188">
        <ele>5.035</ele>
        <time>2019-10-14T09:26:05Z</time>
      </trkpt>
      <trkpt lat="42.95874" lon="9.45128">
        <ele>9.735</ele>
        <time>2019-10-14T09:26:56Z</time>
      </trkpt>
      <trkpt lat="42.9584" lon="9.4504">
        <ele>17.908</ele>
        <time>2019-10-14T09:31:05Z</time>
      </trkpt>
      <trkpt lat="42.95798" lon="9.44932">
        <ele>26.672</ele>
        <time>2019-10-14T09:31:35Z</time>
      </trkpt>
      <trkpt lat="42.95757" lon="9.4482">
        <ele>25.559</ele>
        <time>2019-10-14T09:32:05Z</time>
      </trkpt>
      <trkpt lat="42.95717" lon="9.44711">
        <ele>33.306</ele>
        <time>2019-10-14T09:32:35Z</time>
      </trkpt>
      <trkpt lat="42.95676" lon="9.44599">
        <ele>36.546</ele>
        <time>2019-10-14T09:33:05Z</time>
      </trkpt>
      <trkpt lat="42.95644" lon="9.4449">
        <ele>31.158</ele>
        <time>2019-10-14T09:33:35Z</time>
      </trkpt>
      <trkpt lat="42.95614" lon="9.44385">
        <ele>33.483</ele>
        <time>2019-10-14T09:34:05Z</time>
      </trkpt>
      <trkpt lat="42.95589" lon="9.44297">
        <ele>38.965</ele>
        <time>2019-10-14T09:34:35Z</time>
      </trkpt>
      <trkpt lat="42.95586" lon="9.44206">
        <ele>43.609</ele>
        <time>2019-10-14T09:35:05Z</time>
      </trkpt>
      <trkpt lat="42.9558" lon="9.4413">
        <ele>49.563</ele>
        <time>2019-10-14T09:35:38Z</time>
      </trkpt>
      <trkpt lat="42.95567" lon="9.44075">
        <ele>46.97</ele>
        <time>2019-10-14T09:38:59Z</time>
      </trkpt>
      <trkpt lat="42.95566" lon="9.43993">
        <ele>47.67</ele>
        <time>2019-10-14T09:39:29Z</time>
      </trkpt>
      <trkpt lat="42.95584" lon="9.43908">
        <ele>61.725</ele>
        <time>2019-10-14T09:40:02Z</time>
      </trkpt>
      <trkpt lat="42.95547" lon="9.4385">
        <ele>64.188</ele>
        <time>2019-10-14T09:40:32Z</time>
      </trkpt>
      <trkpt lat="42.95525" lon="9.43782">
        <ele>68.543</ele>
        <time>2019-10-14T09:41:02Z</time>
      </trkpt>
      <trkpt lat="42.95542" lon="9.437">
        <ele>70.212</ele>
        <time>2019-10-14T09:41:32Z</time>
      </trkpt>
      <trkpt lat="42.95539" lon="9.43643">
        <ele>79.788</ele>
        <time>2019-10-14T09:42:02Z</time>
      </trkpt>
      <trkpt lat="42.95511" lon="9.4358">
        <ele>79.298</ele>
        <time>2019-10-14T09:42:32Z</time>
      </trkpt>
      <trkpt lat="42.95514" lon="9.435">
        <ele>87.891</ele>
        <time>2019-10-14T09:43:02Z</time>
      </trkpt>
      <trkpt lat="42.95557" lon="9.43437">
        <ele>89.728</ele>
        <time>2019-10-14T09:43:32Z</time>
      </trkpt>
      <trkpt lat="42.95549" lon="9.43374">
        <ele>99.424</ele>
        <time>2019-10-14T09:44:05Z</time>
      </trkpt>
      <trkpt lat="42.95496" lon="9.43321">
        <ele>97.872</ele>
        <time>2019-10-14T09:44:41Z</time>
      </trkpt>
      <trkpt lat="42.95539" lon="9.4326">
        <ele>97.767</ele>
        <time>2019-10-14T09:45:11Z</time>
      </trkpt>
      <trkpt lat="42.95568" lon="9.43181">
        <ele>101.851</ele>
        <time>2019-10-14T09:45:44Z</time>
      </trkpt>
      <trkpt lat="42.95586" lon="9.43098">
        <ele>111.923</ele>
        <time>2019-10-14T09:46:14Z</time>
      </trkpt>
      <trkpt lat="42.95598" lon="9.43026">
        <ele>115.067</ele>
        <time>2019-10-14T09:46:44Z</time>
      </trkpt>
      <trkpt lat="42.9554" lon="9.4298">
        <ele>108.442</ele>
        <time>2019-10-14T09:47:20Z</time>
      </trkpt>
      <trkpt lat="42.95523" lon="9.42901">
        <ele>115.513</ele>
        <time>2019-10-14T09:47:50Z</time>
      </trkpt>
      <trkpt lat="42.95544" lon="9.42821">
        <ele>124.95</ele>
        <time>2019-10-14T09:48:20Z</time>
      </trkpt>
      <trkpt lat="42.95599" lon="9.42767">
        <ele>121.67</ele>
        <time>2019-10-14T09:48:50Z</time>
      </trkpt>
      <trkpt lat="42.95642" lon="9.42706">
        <ele>125.6</ele>
        <time>2019-10-14T09:49:23Z</time>
      </trkpt>
      <trkpt lat="42.95699" lon="9.42713">
        <ele>128.831</ele>
        <time>2019-10-14T09:49:53Z</time>
      </trkpt>
      <trkpt lat="42.95754" lon="9.42733">
        <ele>129.574</ele>
        <time>2019-10-14T09:50:23Z</time>
      </trkpt>
      <trkpt lat="42.95811" lon="9.42775">
        <ele>121.679</ele>
        <time>2019-10-14T09:50:53Z</time>
      </trkpt>
      <trkpt lat="42.95878" lon="9.42789">
        <ele>124.387</ele>
        <time>2019-10-14T09:51:26Z</time>
      </trkpt>
      <trkpt lat="42.95925" lon="9.42732">
        <ele>128.148</ele>
        <time>2019-10-14T09:51:56Z</time>
      </trkpt>
      <trkpt lat="42.95978" lon="9.42753">
        <ele>136.358</ele>
        <time>2019-10-14T09:52:26Z</time>
      </trkpt>
      <trkpt lat="42.9604" lon="9.42784">
        <ele>140.46</ele>
        <time>2019-10-14T09:52:56Z</time>
      </trkpt>
      <trkpt lat="42.96099" lon="9.42815">
        <ele>143.415</ele>
        <time>2019-10-14T09:53:26Z</time>
      </trkpt>
      <trkpt lat="42.96159" lon="9.42822">
        <ele>144.696</ele>
        <time>2019-10-14T09:53:56Z</time>
      </trkpt>
      <trkpt lat="42.96218" lon="9.42783">
        <ele>150.126</ele>
        <time>2019-10-14T09:54:29Z</time>
      </trkpt>
      <trkpt lat="42.96211" lon="9.42703">
        <ele>156.615</ele>
        <time>2019-10-14T09:54:59Z</time>
      </trkpt>
      <trkpt lat="42.96201" lon="9.4262">
        <ele>163.044</ele>
        <time>2019-10-14T09:55:32Z</time>
      </trkpt>
      <trkpt lat="42.9621" lon="9.42539">
        <ele>170.822</ele>
        <time>2019-10-14T09:56:02Z</time>
      </trkpt>
      <trkpt lat="42.96271" lon="9.42508">
        <ele>167.515</ele>
        <time>2019-10-14T09:56:35Z</time>
      </trkpt>
      <trkpt lat="42.96285" lon="9.42424">
        <ele>168.785</ele>
        <time>2019-10-14T09:57:08Z</time>
      </trkpt>
      <trkpt lat="42.96317" lon="9.42387">
        <ele>171.52</ele>
        <time>2019-10-14T09:57:38Z</time>
      </trkpt>
      <trkpt lat="42.96361" lon="9.42443">
        <ele>177.267</ele>
        <time>2019-10-14T09:58:08Z</time>
      </trkpt>
      <trkpt lat="42.96409" lon="9.42481">
        <ele>176.528</ele>
        <time>2019-10-14T09:58:38Z</time>
      </trkpt>
      <trkpt lat="42.96455" lon="9.42422">
        <ele>183.376</ele>
        <time>2019-10-14T09:59:14Z</time>
      </trkpt>
      <trkpt lat="42.96499" lon="9.42399">
        <ele>185.42</ele>
        <time>2019-10-14T09:59:44Z</time>
      </trkpt>
      <trkpt lat="42.96548" lon="9.42442">
        <ele>191.202</ele>
        <time>2019-10-14T10:00:20Z</time>
      </trkpt>
      <trkpt lat="42.96614" lon="9.42434">
        <ele>200.863</ele>
        <time>2019-10-14T10:00:56Z</time>
      </trkpt>
      <trkpt lat="42.9668" lon="9.42451">
        <ele>193.188</ele>
        <time>2019-10-14T10:01:26Z</time>
      </trkpt>
      <trkpt lat="42.96702" lon="9.42385">
        <ele>201.537</ele>
        <time>2019-10-14T10:01:56Z</time>
      </trkpt>
      <trkpt lat="42.96731" lon="9.42318">
        <ele>205.544</ele>
        <time>2019-10-14T10:02:26Z</time>
      </trkpt>
      <trkpt lat="42.96746" lon="9.42227">
        <ele>211.713</ele>
        <time>2019-10-14T10:02:59Z</time>
      </trkpt>
      <trkpt lat="42.96746" lon="9.42152">
        <ele>215.728</ele>
        <time>2019-10-14T10:03:29Z</time>
      </trkpt>
      <trkpt lat="42.96797" lon="9.421">
        <ele>216.94</ele>
        <time>2019-10-14T10:03:59Z</time>
      </trkpt>
      <trkpt lat="42.96809" lon="9.42032">
        <ele>223.528</ele>
        <time>2019-10-14T10:04:29Z</time>
      </trkpt>
      <trkpt lat="42.96835" lon="9.41967">
        <ele>223.468</ele>
        <time>2019-10-14T10:04:59Z</time>
      </trkpt>
      <trkpt lat="42.96855" lon="9.41891">
        <ele>230.888</ele>
        <time>2019-10-14T10:05:35Z</time>
      </trkpt>
      <trkpt lat="42.96843" lon="9.41817">
        <ele>237.452</ele>
        <time>2019-10-14T10:06:08Z</time>
      </trkpt>
      <trkpt lat="42.96844" lon="9.41727">
        <ele>233.996</ele>
        <time>2019-10-14T10:06:38Z</time>
      </trkpt>
      <trkpt lat="42.96816" lon="9.41653">
        <ele>235.621</ele>
        <time>2019-10-14T10:07:14Z</time>
      </trkpt>
      <trkpt lat="42.96806" lon="9.41568">
        <ele>241.836</ele>
        <time>2019-10-14T10:07:44Z</time>
      </trkpt>
      <trkpt lat="42.96799" lon="9.41486">
        <ele>240.359</ele>
        <time>2019-10-14T10:08:14Z</time>
      </trkpt>
      <trkpt lat="42.96832" lon="9.41412">
        <ele>244.165</ele>
        <time>2019-10-14T10:08:47Z</time>
      </trkpt>
      <trkpt lat="42.96822" lon="9.41329">
        <ele>242.678</ele>
        <time>2019-10-14T10:09:17Z</time>
      </trkpt>
      <trkpt lat="42.96762" lon="9.4126">
        <ele>248.714</ele>
        <time>2019-10-14T10:09:47Z</time>
      </trkpt>
      <trkpt lat="42.96729" lon="9.41194">
        <ele>251.2</ele>
        <time>2019-10-14T10:10:17Z</time>
      </trkpt>
      <trkpt lat="42.96735" lon="9.41074">
        <ele>249.823</ele>
        <time>2019-10-14T10:10:47Z</time>
      </trkpt>
      <trkpt lat="42.96702" lon="9.41003">
        <ele>250.454</ele>
        <time>2019-10-14T10:14:14Z</time>
      </trkpt>
      <trkpt lat="42.9664" lon="9.409">
        <ele>249.42</ele>
        <time>2019-10-14T10:14:44Z</time>
      </trkpt>
      <trkpt lat="42.96532" lon="9.40828">
        <ele>247.867</ele>
        <time>2019-10-14T10:15:14Z</time>
      </trkpt>
      <trkpt lat="42.96473" lon="9.40688">
        <ele>254.094</ele>
        <time>2019-10-14T10:15:44Z</time>
      </trkpt>
      <trkpt lat="42.96416" lon="9.40536">
        <ele>253.193</ele>
        <time>2019-10-14T10:16:14Z</time>
      </trkpt>
      <trkpt lat="42.96323" lon="9.40411">
        <ele>250.653</ele>
        <time>2019-10-14T10:16:44Z</time>
      </trkpt>
      <trkpt lat="42.96243" lon="9.40285">
        <ele>250.161</ele>
        <time>2019-10-14T10:17:17Z</time>
      </trkpt>
      <trkpt lat="42.9618" lon="9.40123">
        <ele>253.464</ele>
        <time>2019-10-14T10:17:47Z</time>
      </trkpt>
      <trkpt lat="42.96096" lon="9.4">
        <ele>251.487</ele>
        <time>2019-10-14T10:18:17Z</time>
      </trkpt>
      <trkpt lat="42.96075" lon="9.39837">
        <ele>254.51</ele>
        <time>2019-10-14T10:18:47Z</time>
      </trkpt>
      <trkpt lat="42.96044" lon="9.39678">
        <ele>256.576</ele>
        <time>2019-10-14T10:19:17Z</time>
      </trkpt>
      <trkpt lat="42.96047" lon="9.39509">
        <ele>260.354</ele>
        <time>2019-10-14T10:19:47Z</time>
      </trkpt>
      <trkpt lat="42.96125" lon="9.39387">
        <ele>261.3</ele>
        <time>2019-10-14T10:20:17Z</time>
      </trkpt>
      <trkpt lat="42.96026" lon="9.39247">
        <ele>257.366</ele>
        <time>2019-10-14T10:20:47Z</time>
      </trkpt>
      <trkpt lat="42.95889" lon="9.39178">
        <ele>253.156</ele>
        <time>2019-10-14T10:21:17Z</time>
      </trkpt>
      <trkpt lat="42.95789" lon="9.3906">
        <ele>256.976</ele>
        <time>2019-10-14T10:21:47Z</time>
      </trkpt>
      <trkpt lat="42.95862" lon="9.38982">
        <ele>258.529</ele>
        <time>2019-10-14T10:22:17Z</time>
      </trkpt>
      <trkpt lat="42.9596" lon="9.38955">
        <ele>259.22</ele>
        <time>2019-10-14T10:22:50Z</time>
      </trkpt>
      <trkpt lat="42.96048" lon="9.38941">
        <ele>263.024</ele>
        <time>2019-10-14T10:23:20Z</time>
      </trkpt>
      <trkpt lat="42.96132" lon="9.38915">
        <ele>261.311</ele>
        <time>2019-10-14T10:23:50Z</time>
      </trkpt>
      <trkpt lat="42.96193" lon="9.39004">
        <ele>266.338</ele>
        <time>2019-10-14T10:24:20Z</time>
      </trkpt>
      <trkpt lat="42.96273" lon="9.39016">
        <ele>269.972</ele>
        <time>2019-10-14T10:24:50Z</time>
      </trkpt>
      <trkpt lat="42.96349" lon="9.39045">
        <ele>273.138</ele>
        <time>2019-10-14T10:25:20Z</time>
      </trkpt>
      <trkpt lat="42.96425" lon="9.39101">
        <ele>273.443</ele>
        <time>2019-10-14T10:25:50Z</time>
      </trkpt>
      <trkpt lat="42.96494" lon="9.39163">
        <ele>278.038</ele>
        <time>2019-10-14T10:26:20Z</time>
      </trkpt>
      <trkpt lat="42.96573" lon="9.39203">
        <ele>281.15</ele>
        <time>2019-10-14T10:26:50Z</time>
      </trkpt>
      <trkpt lat="42.96631" lon="9.39148">
        <ele>284.761</ele>
        <time>2019-10-14T10:27:20Z</time>
      </trkpt>
      <trkpt lat="42.96689" lon="9.39132">
        <ele>291.842</ele>
        <time>2019-10-14T10:27:50Z</time>
      </trkpt>
      <trkpt lat="42.96743" lon="9.39223">
        <ele>289.277</ele>
        <time>2019-10-14T10:28:23Z</time>
      </trkpt>
      <trkpt lat="42.96821" lon="9.39191">
        <ele>291.539</ele>
        <time>2019-10-14T10:28:53Z</time>
      </trkpt>
      <trkpt lat="42.96884" lon="9.39122">
        <ele>294.763</ele>
        <time>2019-10-14T10:29:23Z</time>
      </trkpt>
      <trkpt lat="42.96959" lon="9.3906">
        <ele>300.383</ele>
        <time>2019-10-14T10:29:53Z</time>
      </trkpt>
      <trkpt lat="42.96986" lon="9.38959">
        <ele>305.278</ele>
        <time>2019-10-14T10:30:23Z</time>
      </trkpt>
      <trkpt lat="42.96974" lon="9.38847">
        <ele>311.832</ele>
        <time>2019-10-14T10:30:53Z</time>
      </trkpt>
      <trkpt lat="42.97012" lon="9.38747">
        <ele>315.812</ele>
        <time>2019-10-14T10:31:23Z</time>
      </trkpt>
      <trkpt lat="42.97095" lon="9.38682">
        <ele>310.559</ele>
        <time>2019-10-14T10:31:53Z</time>
      </trkpt>
      <trkpt lat="42.9719" lon="9.38645">
        <ele>312.545</ele>
        <time>2019-10-14T10:32:23Z</time>
      </trkpt>
      <trkpt lat="42.9732" lon="9.38608">
        <ele>310.725</ele>
        <time>2019-10-14T10:32:53Z</time>
      </trkpt>
      <trkpt lat="42.97445" lon="9.38537">
        <ele>312.107</ele>
        <time>2019-10-14T10:33:23Z</time>
      </trkpt>
      <trkpt lat="42.97563" lon="9.3847">
        <ele>313.289</ele>
        <time>2019-10-14T10:33:53Z</time>
      </trkpt>
      <trkpt lat="42.97667" lon="9.38387">
        <ele>311.433</ele>
        <time>2019-10-14T10:34:26Z</time>
      </trkpt>
      <trkpt lat="42.97653" lon="9.3824">
        <ele>314.395</ele>
        <time>2019-10-14T10:34:56Z</time>
      </trkpt>
      <trkpt lat="42.97647" lon="9.38117">
        <ele>318.773</ele>
        <time>2019-10-14T10:35:26Z</time>
      </trkpt>
      <trkpt lat="42.97659" lon="9.38206">
        <ele>318.968</ele>
        <time>2019-10-14T10:37:08Z</time>
      </trkpt>
      <trkpt lat="42.97688" lon="9.38233">
        <ele>311.962</ele>
        <time>2019-10-14T10:37:56Z</time>
      </trkpt>
      <trkpt lat="42.97712" lon="9.38312">
        <ele>304.528</ele>
        <time>2019-10-14T10:39:08Z</time>
      </trkpt>
      <trkpt lat="42.97681" lon="9.38499">
        <ele>286.185</ele>
        <time>2019-10-14T10:39:38Z</time>
      </trkpt>
      <trkpt lat="42.97475" lon="9.38624">
        <ele>272.77</ele>
        <time>2019-10-14T10:40:08Z</time>
      </trkpt>
      <trkpt lat="42.97301" lon="9.38862">
        <ele>256.155</ele>
        <time>2019-10-14T10:40:38Z</time>
      </trkpt>
      <trkpt lat="42.97351" lon="9.38894">
        <ele>237.041</ele>
        <time>2019-10-14T10:41:08Z</time>
      </trkpt>
      <trkpt lat="42.97555" lon="9.38778">
        <ele>222.697</ele>
        <time>2019-10-14T10:41:38Z</time>
      </trkpt>
      <trkpt lat="42.9761" lon="9.387">
        <ele>215.645</ele>
        <time>2019-10-14T10:42:11Z</time>
      </trkpt>
      <trkpt lat="42.97581" lon="9.38951">
        <ele>201.094</ele>
        <time>2019-10-14T10:42:41Z</time>
      </trkpt>
      <trkpt lat="42.97491" lon="9.39005">
        <ele>196.51</ele>
        <time>2019-10-14T10:43:14Z</time>
      </trkpt>
      <trkpt lat="42.97605" lon="9.39116">
        <ele>186.632</ele>
        <time>2019-10-14T10:43:44Z</time>
      </trkpt>
      <trkpt lat="42.97755" lon="9.39223">
        <ele>184.336</ele>
        <time>2019-10-14T10:44:14Z</time>
      </trkpt>
      <trkpt lat="42.97884" lon="9.39314">
        <ele>182.331</ele>
        <time>2019-10-14T10:44:44Z</time>
      </trkpt>
      <trkpt lat="42.97987" lon="9.39392">
        <ele>188.137</ele>
        <time>2019-10-14T10:45:14Z</time>
      </trkpt>
      <trkpt lat="42.98128" lon="9.39425">
        <ele>188.061</ele>
        <time>2019-10-14T10:45:44Z</time>
      </trkpt>
      <trkpt lat="42.98241" lon="9.39537">
        <ele>185.563</ele>
        <time>2019-10-14T10:46:14Z</time>
      </trkpt>
      <trkpt lat="42.98341" lon="9.39586">
        <ele>186.687</ele>
        <time>2019-10-14T10:46:44Z</time>
      </trkpt>
      <trkpt lat="42.98431" lon="9.39626">
        <ele>184.738</ele>
        <time>2019-10-14T10:47:14Z</time>
      </trkpt>
      <trkpt lat="42.98569" lon="9.39782">
        <ele>168.499</ele>
        <time>2019-10-14T10:47:47Z</time>
      </trkpt>
      <trkpt lat="42.98727" lon="9.40032">
        <ele>148.898</ele>
        <time>2019-10-14T10:48:17Z</time>
      </trkpt>
      <trkpt lat="42.98787" lon="9.40299">
        <ele>124.107</ele>
        <time>2019-10-14T10:48:47Z</time>
      </trkpt>
      <trkpt lat="42.9889" lon="9.40515">
        <ele>109.059</ele>
        <time>2019-10-14T10:49:17Z</time>
      </trkpt>
      <trkpt lat="42.98951" lon="9.40483">
        <ele>105.727</ele>
        <time>2019-10-14T10:50:56Z</time>
      </trkpt>
      <trkpt lat="42.98895" lon="9.40292">
        <ele>101.927</ele>
        <time>2019-10-14T10:51:26Z</time>
      </trkpt>
      <trkpt lat="42.99041" lon="9.40187">
        <ele>87.345</ele>
        <time>2019-10-14T10:51:56Z</time>
      </trkpt>
      <trkpt lat="42.99222" lon="9.39986">
        <ele>68.647</ele>
        <time>2019-10-14T10:52:26Z</time>
      </trkpt>
      <trkpt lat="42.99452" lon="9.39886">
        <ele>53.399</ele>
        <time>2019-10-14T10:52:56Z</time>
      </trkpt>
      <trkpt lat="42.9969" lon="9.39849">
        <ele>44.455</ele>
        <time>2019-10-14T10:53:26Z</time>
      </trkpt>
      <trkpt lat="42.99889" lon="9.39902">
        <ele>34.972</ele>
        <time>2019-10-14T10:53:56Z</time>
      </trkpt>
      <trkpt lat="43.00108" lon="9.39988">
        <ele>25.62</ele>
        <time>2019-10-14T10:54:29Z</time>
      </trkpt>
      <trkpt lat="43.00226" lon="9.40173">
        <ele>19.994</ele>
        <time>2019-10-14T10:54:59Z</time>
      </trkpt>
      <trkpt lat="43.00322" lon="9.40204">
        <ele>15.382</ele>
        <time>2019-10-14T10:55:29Z</time>
      </trkpt>
      <trkpt lat="43.00483" lon="9.40313">
        <ele>12.141</ele>
        <time>2019-10-14T10:55:59Z</time>
      </trkpt>
      <trkpt lat="43.00588" lon="9.40251">
        <ele>6.605</ele>
        <time>2019-10-14T10:56:29Z</time>
      </trkpt>
      <trkpt lat="43.00616" lon="9.40242">
        <ele>6.116</ele>
        <time>2019-10-14T10:58:05Z</time>
      </trkpt>
      <trkpt lat="43.00607" lon="9.40318">
        <ele>7.751</ele>
        <time>2019-10-14T10:59:32Z</time>
      </trkpt>
      <trkpt lat="43.00619" lon="9.40259">
        <ele>6.735</ele>
        <time>2019-10-14T11:01:11Z</time>
      </trkpt>
      <trkpt lat="43.00646" lon="9.4015">
        <ele>8.657</ele>
        <time>2019-10-14T11:01:41Z</time>
      </trkpt>
      <trkpt lat="43.00725" lon="9.4016">
        <ele>12.136</ele>
        <time>2019-10-14T11:02:11Z</time>
      </trkpt>
      <trkpt lat="43.00763" lon="9.40074">
        <ele>8.97</ele>
        <time>2019-10-14T11:02:41Z</time>
      </trkpt>
      <trkpt lat="43.00758" lon="9.39974">
        <ele>16.805</ele>
        <time>2019-10-14T11:03:14Z</time>
      </trkpt>
      <trkpt lat="43.00706" lon="9.39938">
        <ele>17.834</ele>
        <time>2019-10-14T11:03:44Z</time>
      </trkpt>
      <trkpt lat="43.00672" lon="9.39865">
        <ele>23.855</ele>
        <time>2019-10-14T11:04:14Z</time>
      </trkpt>
      <trkpt lat="43.00609" lon="9.39819">
        <ele>24.818</ele>
        <time>2019-10-14T11:04:44Z</time>
      </trkpt>
      <trkpt lat="43.00543" lon="9.39802">
        <ele>28.531</ele>
        <time>2019-10-14T11:05:14Z</time>
      </trkpt>
      <trkpt lat="43.00496" lon="9.39603">
        <ele>27.285</ele>
        <time>2019-10-14T11:05:44Z</time>
      </trkpt>
      <trkpt lat="43.00504" lon="9.39456">
        <ele>29.056</ele>
        <time>2019-10-14T11:06:14Z</time>
      </trkpt>
      <trkpt lat="43.00525" lon="9.39377">
        <ele>32.104</ele>
        <time>2019-10-14T11:06:44Z</time>
      </trkpt>
      <trkpt lat="43.00522" lon="9.39217">
        <ele>29.731</ele>
        <time>2019-10-14T11:07:14Z</time>
      </trkpt>
      <trkpt lat="43.00414" lon="9.39016">
        <ele>23.763</ele>
        <time>2019-10-14T11:07:44Z</time>
      </trkpt>
      <trkpt lat="43.00208" lon="9.38861">
        <ele>14.778</ele>
        <time>2019-10-14T11:08:14Z</time>
      </trkpt>
      <trkpt lat="43.00189" lon="9.38579">
        <ele>6.886</ele>
        <time>2019-10-14T11:08:47Z</time>
      </trkpt>
      <trkpt lat="43.00273" lon="9.38546">
        <ele>12.274</ele>
        <time>2019-10-14T11:09:17Z</time>
      </trkpt>
      <trkpt lat="43.00331" lon="9.38526">
        <ele>18.758</ele>
        <time>2019-10-14T11:09:47Z</time>
      </trkpt>
      <trkpt lat="43.00401" lon="9.38547">
        <ele>22.323</ele>
        <time>2019-10-14T11:10:17Z</time>
      </trkpt>
      <trkpt lat="43.00473" lon="9.38495">
        <ele>22.123</ele>
        <time>2019-10-14T11:10:47Z</time>
      </trkpt>
      <trkpt lat="43.00426" lon="9.38507">
        <ele>24.204</ele>
        <time>2019-10-14T11:17:38Z</time>
      </trkpt>
      <trkpt lat="43.00374" lon="9.38471">
        <ele>28.704</ele>
        <time>2019-10-14T11:18:08Z</time>
      </trkpt>
      <trkpt lat="43.0033" lon="9.3842">
        <ele>34.827</ele>
        <time>2019-10-14T11:18:38Z</time>
      </trkpt>
      <trkpt lat="43.00273" lon="9.38384">
        <ele>39.081</ele>
        <time>2019-10-14T11:19:08Z</time>
      </trkpt>
      <trkpt lat="43.00228" lon="9.38322">
        <ele>42.388</ele>
        <time>2019-10-14T11:19:38Z</time>
      </trkpt>
      <trkpt lat="43.00173" lon="9.38283">
        <ele>46.551</ele>
        <time>2019-10-14T11:20:08Z</time>
      </trkpt>
      <trkpt lat="43.00123" lon="9.38219">
        <ele>51.442</ele>
        <time>2019-10-14T11:20:41Z</time>
      </trkpt>
      <trkpt lat="43.00076" lon="9.38162">
        <ele>55.481</ele>
        <time>2019-10-14T11:21:11Z</time>
      </trkpt>
      <trkpt lat="43.00025" lon="9.38116">
        <ele>58.276</ele>
        <time>2019-10-14T11:21:41Z</time>
      </trkpt>
      <trkpt lat="42.99965" lon="9.38103">
        <ele>62.001</ele>
        <time>2019-10-14T11:22:11Z</time>
      </trkpt>
      <trkpt lat="42.99909" lon="9.38076">
        <ele>65.638</ele>
        <time>2019-10-14T11:22:41Z</time>
      </trkpt>
      <trkpt lat="42.99865" lon="9.38024">
        <ele>68.73</ele>
        <time>2019-10-14T11:23:11Z</time>
      </trkpt>
      <trkpt lat="42.99821" lon="9.37971">
        <ele>74.069</ele>
        <time>2019-10-14T11:23:41Z</time>
      </trkpt>
      <trkpt lat="42.99769" lon="9.37989">
        <ele>76.939</ele>
        <time>2019-10-14T11:24:11Z</time>
      </trkpt>
      <trkpt lat="42.99713" lon="9.3802">
        <ele>82.207</ele>
        <time>2019-10-14T11:24:41Z</time>
      </trkpt>
      <trkpt lat="42.99681" lon="9.38089">
        <ele>87.794</ele>
        <time>2019-10-14T11:25:11Z</time>
      </trkpt>
      <trkpt lat="42.99627" lon="9.38085">
        <ele>89.776</ele>
        <time>2019-10-14T11:25:41Z</time>
      </trkpt>
      <trkpt lat="42.99571" lon="9.38035">
        <ele>95.344</ele>
        <time>2019-10-14T11:26:14Z</time>
      </trkpt>
      <trkpt lat="42.99511" lon="9.38001">
        <ele>101.032</ele>
        <time>2019-10-14T11:26:44Z</time>
      </trkpt>
      <trkpt lat="42.99463" lon="9.3797">
        <ele>103.137</ele>
        <time>2019-10-14T11:27:14Z</time>
      </trkpt>
      <trkpt lat="42.99408" lon="9.37942">
        <ele>103.139</ele>
        <time>2019-10-14T11:27:44Z</time>
      </trkpt>
      <trkpt lat="42.99359" lon="9.37909">
        <ele>106.334</ele>
        <time>2019-10-14T11:28:14Z</time>
      </trkpt>
      <trkpt lat="42.99305" lon="9.37885">
        <ele>109.49</ele>
        <time>2019-10-14T11:28:44Z</time>
      </trkpt>
      <trkpt lat="42.99248" lon="9.37888">
        <ele>113.006</ele>
        <time>2019-10-14T11:29:14Z</time>
      </trkpt>
      <trkpt lat="42.99197" lon="9.37851">
        <ele>116.538</ele>
        <time>2019-10-14T11:29:44Z</time>
      </trkpt>
      <trkpt lat="42.99141" lon="9.3784">
        <ele>120.978</ele>
        <time>2019-10-14T11:30:14Z</time>
      </trkpt>
      <trkpt lat="42.99087" lon="9.37809">
        <ele>125.616</ele>
        <time>2019-10-14T11:30:44Z</time>
      </trkpt>
      <trkpt lat="42.99039" lon="9.3776">
        <ele>129.599</ele>
        <time>2019-10-14T11:31:14Z</time>
      </trkpt>
      <trkpt lat="42.98984" lon="9.3771">
        <ele>133.035</ele>
        <time>2019-10-14T11:31:47Z</time>
      </trkpt>
      <trkpt lat="42.9894" lon="9.37665">
        <ele>137.28</ele>
        <time>2019-10-14T11:32:17Z</time>
      </trkpt>
      <trkpt lat="42.98892" lon="9.37629">
        <ele>142.916</ele>
        <time>2019-10-14T11:32:47Z</time>
      </trkpt>
      <trkpt lat="42.98836" lon="9.37599">
        <ele>144.434</ele>
        <time>2019-10-14T11:33:17Z</time>
      </trkpt>
      <trkpt lat="42.98794" lon="9.37547">
        <ele>146.928</ele>
        <time>2019-10-14T11:33:47Z</time>
      </trkpt>
      <trkpt lat="42.98754" lon="9.37482">
        <ele>152.323</ele>
        <time>2019-10-14T11:34:17Z</time>
      </trkpt>
      <trkpt lat="42.9873" lon="9.37415">
        <ele>156.634</ele>
        <time>2019-10-14T11:34:47Z</time>
      </trkpt>
      <trkpt lat="42.98708" lon="9.37339">
        <ele>158.962</ele>
        <time>2019-10-14T11:35:20Z</time>
      </trkpt>
      <trkpt lat="42.98673" lon="9.37297">
        <ele>163.692</ele>
        <time>2019-10-14T11:35:50Z</time>
      </trkpt>
      <trkpt lat="42.98632" lon="9.37349">
        <ele>163.373</ele>
        <time>2019-10-14T11:36:26Z</time>
      </trkpt>
      <trkpt lat="42.9857" lon="9.3737">
        <ele>161.017</ele>
        <time>2019-10-14T11:36:56Z</time>
      </trkpt>
      <trkpt lat="42.98519" lon="9.3735">
        <ele>171.948</ele>
        <time>2019-10-14T11:37:26Z</time>
      </trkpt>
      <trkpt lat="42.98473" lon="9.37297">
        <ele>175.466</ele>
        <time>2019-10-14T11:37:59Z</time>
      </trkpt>
      <trkpt lat="42.98435" lon="9.37242">
        <ele>178.905</ele>
        <time>2019-10-14T11:38:29Z</time>
      </trkpt>
      <trkpt lat="42.98422" lon="9.37174">
        <ele>186.945</ele>
        <time>2019-10-14T11:38:59Z</time>
      </trkpt>
      <trkpt lat="42.98379" lon="9.37176">
        <ele>190.296</ele>
        <time>2019-10-14T11:39:35Z</time>
      </trkpt>
      <trkpt lat="42.98322" lon="9.37215">
        <ele>184.665</ele>
        <time>2019-10-14T11:40:05Z</time>
      </trkpt>
      <trkpt lat="42.98275" lon="9.37195">
        <ele>188.036</ele>
        <time>2019-10-14T11:40:35Z</time>
      </trkpt>
      <trkpt lat="42.98244" lon="9.37128">
        <ele>192.175</ele>
        <time>2019-10-14T11:41:05Z</time>
      </trkpt>
      <trkpt lat="42.98222" lon="9.37053">
        <ele>196.809</ele>
        <time>2019-10-14T11:41:35Z</time>
      </trkpt>
      <trkpt lat="42.98178" lon="9.36996">
        <ele>204.231</ele>
        <time>2019-10-14T11:42:11Z</time>
      </trkpt>
      <trkpt lat="42.98122" lon="9.36964">
        <ele>209.734</ele>
        <time>2019-10-14T11:42:47Z</time>
      </trkpt>
      <trkpt lat="42.98073" lon="9.36911">
        <ele>210.012</ele>
        <time>2019-10-14T11:43:17Z</time>
      </trkpt>
      <trkpt lat="42.98028" lon="9.36867">
        <ele>215.905</ele>
        <time>2019-10-14T11:43:50Z</time>
      </trkpt>
      <trkpt lat="42.97965" lon="9.36873">
        <ele>211.226</ele>
        <time>2019-10-14T11:44:23Z</time>
      </trkpt>
      <trkpt lat="42.97921" lon="9.36876">
        <ele>220.492</ele>
        <time>2019-10-14T11:44:56Z</time>
      </trkpt>
      <trkpt lat="42.97909" lon="9.36955">
        <ele>235.87</ele>
        <time>2019-10-14T11:45:35Z</time>
      </trkpt>
      <trkpt lat="42.9789" lon="9.37022">
        <ele>235.314</ele>
        <time>2019-10-14T11:46:05Z</time>
      </trkpt>
      <trkpt lat="42.97839" lon="9.3706">
        <ele>236.349</ele>
        <time>2019-10-14T11:46:35Z</time>
      </trkpt>
      <trkpt lat="42.97783" lon="9.37084">
        <ele>244.312</ele>
        <time>2019-10-14T11:47:11Z</time>
      </trkpt>
      <trkpt lat="42.97726" lon="9.3711">
        <ele>244.171</ele>
        <time>2019-10-14T11:47:41Z</time>
      </trkpt>
      <trkpt lat="42.97673" lon="9.37126">
        <ele>243.354</ele>
        <time>2019-10-14T11:48:11Z</time>
      </trkpt>
      <trkpt lat="42.97668" lon="9.37196">
        <ele>252.402</ele>
        <time>2019-10-14T11:48:47Z</time>
      </trkpt>
      <trkpt lat="42.97642" lon="9.3727">
        <ele>252.855</ele>
        <time>2019-10-14T11:49:17Z</time>
      </trkpt>
      <trkpt lat="42.97615" lon="9.37343">
        <ele>256.656</ele>
        <time>2019-10-14T11:49:50Z</time>
      </trkpt>
      <trkpt lat="42.97586" lon="9.37409">
        <ele>256.897</ele>
        <time>2019-10-14T11:50:20Z</time>
      </trkpt>
      <trkpt lat="42.97581" lon="9.37458">
        <ele>259.26</ele>
        <time>2019-10-14T11:55:23Z</time>
      </trkpt>
      <trkpt lat="42.97607" lon="9.37539">
        <ele>259.554</ele>
        <time>2019-10-14T11:55:53Z</time>
      </trkpt>
      <trkpt lat="42.97589" lon="9.37611">
        <ele>262.147</ele>
        <time>2019-10-14T11:56:23Z</time>
      </trkpt>
      <trkpt lat="42.97542" lon="9.37661">
        <ele>262.412</ele>
        <time>2019-10-14T11:56:53Z</time>
      </trkpt>
      <trkpt lat="42.97576" lon="9.37709">
        <ele>266.318</ele>
        <time>2019-10-14T11:57:23Z</time>
      </trkpt>
      <trkpt lat="42.97622" lon="9.37762">
        <ele>273.771</ele>
        <time>2019-10-14T11:57:53Z</time>
      </trkpt>
      <trkpt lat="42.97619" lon="9.37837">
        <ele>277.91</ele>
        <time>2019-10-14T11:58:23Z</time>
      </trkpt>
      <trkpt lat="42.97617" lon="9.37913">
        <ele>286.499</ele>
        <time>2019-10-14T11:58:59Z</time>
      </trkpt>
      <trkpt lat="42.97648" lon="9.37974">
        <ele>287.437</ele>
        <time>2019-10-14T11:59:29Z</time>
      </trkpt>
      <trkpt lat="42.97694" lon="9.38029">
        <ele>286.415</ele>
        <time>2019-10-14T12:00:02Z</time>
      </trkpt>
      <trkpt lat="42.97694" lon="9.38106">
        <ele>293.745</ele>
        <time>2019-10-14T12:00:35Z</time>
      </trkpt>
      <trkpt lat="42.97678" lon="9.38177">
        <ele>299.604</ele>
        <time>2019-10-14T12:01:05Z</time>
      </trkpt>
      <trkpt lat="42.9769" lon="9.38254">
        <ele>308.452</ele>
        <time>2019-10-14T12:01:35Z</time>
      </trkpt>
      <trkpt lat="42.97677" lon="9.38253">
        <ele>302.818</ele>
        <time>2019-10-14T12:02:05Z</time>
      </trkpt>
      <trkpt lat="42.97656" lon="9.38182">
        <ele>306.465</ele>
        <time>2019-10-14T12:02:35Z</time>
      </trkpt>
      <trkpt lat="42.97641" lon="9.38105">
        <ele>314.077</ele>
        <time>2019-10-14T12:03:05Z</time>
      </trkpt>
      <trkpt lat="42.97587" lon="9.38028">
        <ele>315.908</ele>
        <time>2019-10-14T12:03:35Z</time>
      </trkpt>
      <trkpt lat="42.97527" lon="9.37974">
        <ele>313.226</ele>
        <time>2019-10-14T12:04:05Z</time>
      </trkpt>
      <trkpt lat="42.97495" lon="9.37902">
        <ele>318.847</ele>
        <time>2019-10-14T12:04:35Z</time>
      </trkpt>
      <trkpt lat="42.97453" lon="9.37848">
        <ele>324.288</ele>
        <time>2019-10-14T12:05:05Z</time>
      </trkpt>
      <trkpt lat="42.97398" lon="9.37794">
        <ele>328.068</ele>
        <time>2019-10-14T12:05:38Z</time>
      </trkpt>
      <trkpt lat="42.97375" lon="9.37721">
        <ele>331.601</ele>
        <time>2019-10-14T12:06:08Z</time>
      </trkpt>
      <trkpt lat="42.97361" lon="9.37645">
        <ele>333.82</ele>
        <time>2019-10-14T12:06:38Z</time>
      </trkpt>
      <trkpt lat="42.97351" lon="9.37564">
        <ele>338.289</ele>
        <time>2019-10-14T12:07:08Z</time>
      </trkpt>
      <trkpt lat="42.97317" lon="9.37483">
        <ele>343.103</ele>
        <time>2019-10-14T12:07:38Z</time>
      </trkpt>
      <trkpt lat="42.97313" lon="9.37403">
        <ele>346.215</ele>
        <time>2019-10-14T12:08:08Z</time>
      </trkpt>
      <trkpt lat="42.97355" lon="9.37333">
        <ele>352.661</ele>
        <time>2019-10-14T12:08:38Z</time>
      </trkpt>
      <trkpt lat="42.97364" lon="9.37252">
        <ele>356.182</ele>
        <time>2019-10-14T12:09:08Z</time>
      </trkpt>
      <trkpt lat="42.97343" lon="9.37147">
        <ele>356.677</ele>
        <time>2019-10-14T12:09:38Z</time>
      </trkpt>
      <trkpt lat="42.97313" lon="9.37037">
        <ele>352.113</ele>
        <time>2019-10-14T12:10:08Z</time>
      </trkpt>
      <trkpt lat="42.9731" lon="9.36922">
        <ele>354.264</ele>
        <time>2019-10-14T12:10:38Z</time>
      </trkpt>
      <trkpt lat="42.97339" lon="9.36793">
        <ele>360.237</ele>
        <time>2019-10-14T12:11:11Z</time>
      </trkpt>
      <trkpt lat="42.97351" lon="9.36687">
        <ele>361.869</ele>
        <time>2019-10-14T12:11:41Z</time>
      </trkpt>
      <trkpt lat="42.97312" lon="9.36712">
        <ele>361.658</ele>
        <time>2019-10-14T12:14:26Z</time>
      </trkpt>
      <trkpt lat="42.97313" lon="9.36699">
        <ele>357.79</ele>
        <time>2019-10-14T12:15:35Z</time>
      </trkpt>
      <trkpt lat="42.97317" lon="9.36704">
        <ele>360.451</ele>
        <time>2019-10-14T12:16:38Z</time>
      </trkpt>
      <trkpt lat="42.97302" lon="9.36726">
        <ele>359.769</ele>
        <time>2019-10-14T12:19:59Z</time>
      </trkpt>
      <trkpt lat="42.97131" lon="9.36852">
        <ele>352.717</ele>
        <time>2019-10-14T12:20:29Z</time>
      </trkpt>
      <trkpt lat="42.96964" lon="9.37054">
        <ele>334.72</ele>
        <time>2019-10-14T12:20:59Z</time>
      </trkpt>
      <trkpt lat="42.96803" lon="9.3736">
        <ele>321.985</ele>
        <time>2019-10-14T12:21:29Z</time>
      </trkpt>
      <trkpt lat="42.96513" lon="9.37381">
        <ele>302.079</ele>
        <time>2019-10-14T12:21:59Z</time>
      </trkpt>
      <trkpt lat="42.96289" lon="9.37529">
        <ele>283.72</ele>
        <time>2019-10-14T12:22:29Z</time>
      </trkpt>
      <trkpt lat="42.96255" lon="9.37194">
        <ele>262.141</ele>
        <time>2019-10-14T12:23:02Z</time>
      </trkpt>
      <trkpt lat="42.96056" lon="9.36983">
        <ele>240.476</ele>
        <time>2019-10-14T12:23:32Z</time>
      </trkpt>
      <trkpt lat="42.95967" lon="9.36785">
        <ele>226.619</ele>
        <time>2019-10-14T12:24:02Z</time>
      </trkpt>
      <trkpt lat="42.96068" lon="9.36777">
        <ele>220.302</ele>
        <time>2019-10-14T12:24:32Z</time>
      </trkpt>
      <trkpt lat="42.96125" lon="9.36927">
        <ele>214.941</ele>
        <time>2019-10-14T12:25:02Z</time>
      </trkpt>
      <trkpt lat="42.96261" lon="9.36989">
        <ele>206.117</ele>
        <time>2019-10-14T12:25:32Z</time>
      </trkpt>
      <trkpt lat="42.96334" lon="9.37168">
        <ele>203.531</ele>
        <time>2019-10-14T12:26:02Z</time>
      </trkpt>
      <trkpt lat="42.96445" lon="9.37092">
        <ele>200.956</ele>
        <time>2019-10-14T12:26:32Z</time>
      </trkpt>
      <trkpt lat="42.96567" lon="9.37006">
        <ele>189.55</ele>
        <time>2019-10-14T12:27:02Z</time>
      </trkpt>
      <trkpt lat="42.96618" lon="9.36829">
        <ele>187.154</ele>
        <time>2019-10-14T12:27:32Z</time>
      </trkpt>
      <trkpt lat="42.9663" lon="9.36621">
        <ele>174.656</ele>
        <time>2019-10-14T12:28:02Z</time>
      </trkpt>
      <trkpt lat="42.96709" lon="9.36412">
        <ele>155.647</ele>
        <time>2019-10-14T12:28:35Z</time>
      </trkpt>
      <trkpt lat="42.96741" lon="9.36388">
        <ele>138.438</ele>
        <time>2019-10-14T12:29:05Z</time>
      </trkpt>
      <trkpt lat="42.96605" lon="9.36471">
        <ele>125.148</ele>
        <time>2019-10-14T12:29:35Z</time>
      </trkpt>
      <trkpt lat="42.96456" lon="9.36602">
        <ele>112.592</ele>
        <time>2019-10-14T12:30:05Z</time>
      </trkpt>
      <trkpt lat="42.96365" lon="9.36454">
        <ele>99.244</ele>
        <time>2019-10-14T12:30:35Z</time>
      </trkpt>
      <trkpt lat="42.96194" lon="9.36252">
        <ele>89.134</ele>
        <time>2019-10-14T12:31:05Z</time>
      </trkpt>
      <trkpt lat="42.96352" lon="9.36194">
        <ele>80.086</ele>
        <time>2019-10-14T12:31:35Z</time>
      </trkpt>
      <trkpt lat="42.9647" lon="9.36151">
        <ele>63.721</ele>
        <time>2019-10-14T12:32:05Z</time>
      </trkpt>
      <trkpt lat="42.96567" lon="9.35873">
        <ele>50.052</ele>
        <time>2019-10-14T12:32:35Z</time>
      </trkpt>
      <trkpt lat="42.96583" lon="9.35586">
        <ele>39.468</ele>
        <time>2019-10-14T12:33:05Z</time>
      </trkpt>
      <trkpt lat="42.96587" lon="9.35418">
        <ele>29.909</ele>
        <time>2019-10-14T12:33:35Z</time>
      </trkpt>
      <trkpt lat="42.96605" lon="9.35235">
        <ele>15.914</ele>
        <time>2019-10-14T12:34:08Z</time>
      </trkpt>
      <trkpt lat="42.96594" lon="9.35105">
        <ele>0.362</ele>
        <time>2019-10-14T12:34:41Z</time>
      </trkpt>
      <trkpt lat="42.96584" lon="9.35013">
        <ele>7</ele>
        <time>2019-10-14T12:35:11Z</time>
      </trkpt>
      <trkpt lat="42.96551" lon="9.34945">
        <ele>4.186</ele>
        <time>2019-10-14T12:35:41Z</time>
      </trkpt>
      <trkpt lat="42.96556" lon="9.34907">
        <ele>5.535</ele>
        <time>2019-10-14T12:41:05.001Z</time>
      </trkpt>
      <trkpt lat="42.96559" lon="9.34903">
        <ele>11.6</ele>
        <time>2019-10-14T12:42:14.001Z</time>
      </trkpt>
    </trkseg>
  </trk>
</gpx>